Time;durP1;ratioP1;P1;durP2;ratioP2;P2;SDS_P1;SDS_P2;PMS_P1;PMS_P2;Temp;Humidity;BMP_temperature;BMP_pressure;BME280_temperature;BME280_humidity;BME280_pressure;Samples;Min_cycle;Max_cycle;Signal;HPM_P1;HPM_P2
2021/03/24 00:01:17;;;;;;;37.53;21.48;;;;;;;-0.13;92.42;94677.78;5065748;28;20066;-70
2021/03/24 00:03:44;;;;;;;100.55;41.95;;;;;;;-0.06;91.87;94663.34;5064993;28;20059;-71
2021/03/24 00:06:11;;;;;;;88.93;38.40;;;;;;;-0.04;91.62;94669.09;5065828;28;20055;-70
2021/03/24 00:08:38;;;;;;;84.22;37.60;;;;;;;-0.08;91.17;94647.34;5066560;28;20058;-70
2021/03/24 00:11:06;;;;;;;90.90;37.15;;;;;;;0.08;90.93;94665.19;5066894;28;20052;-70
2021/03/24 00:13:32;;;;;;;61.05;29.50;;;;;;;0.01;90.73;94664.25;5068848;28;20514;-70
2021/03/24 00:16:00;;;;;;;41.67;23.65;;;;;;;0.00;91.25;94662.69;5065575;28;20047;-70
2021/03/24 00:18:27;;;;;;;37.80;21.60;;;;;;;0.00;91.27;94660.13;5065397;28;20117;-70
2021/03/24 00:20:54;;;;;;;36.90;19.05;;;;;;;-0.22;91.32;94646.31;5066071;28;20037;-70
2021/03/24 00:23:21;;;;;;;30.75;19.05;;;;;;;-0.04;91.30;94661.41;5066539;28;20043;-70
2021/03/24 00:25:47;;;;;;;32.70;18.90;;;;;;;-0.17;91.40;94667.09;5068562;28;20046;-70
2021/03/24 00:28:15;;;;;;;33.17;17.88;;;;;;;-0.23;91.97;94668.56;5065831;28;20052;-70
2021/03/24 00:30:45;;;;;;;40.40;21.25;;;;;;;-0.31;92.34;94647.31;5066807;28;20043;-70
2021/03/24 00:33:16;;;;;;;42.53;18.98;;;;;;;-0.20;92.64;94658.00;5065775;28;20040;-71
2021/03/24 00:35:43;;;;;;;46.88;21.38;;;;;;;-0.26;93.30;94653.53;5065613;28;20044;-71
2021/03/24 00:38:11;;;;;;;47.13;20.63;;;;;;;-0.27;93.46;94646.84;5064452;28;20044;-70
2021/03/24 00:40:41;;;;;;;45.70;19.92;;;;;;;-0.14;93.53;94660.84;5066561;28;20044;-70
2021/03/24 00:43:07;;;;;;;41.33;20.27;;;;;;;-0.26;93.86;94643.28;5066766;28;20767;-70
2021/03/24 00:45:36;;;;;;;42.55;20.90;;;;;;;-0.27;94.34;94651.94;5066089;28;20055;-70
2021/03/24 00:48:04;;;;;;;39.10;19.63;;;;;;;-0.30;94.65;94649.72;5066422;28;20045;-70
2021/03/24 00:50:33;;;;;;;44.22;20.77;;;;;;;-0.39;95.02;94643.03;5065429;28;20033;-70
2021/03/24 00:52:59;;;;;;;56.33;26.55;;;;;;;-0.42;95.01;94638.25;5065400;28;20045;-70
2021/03/24 00:55:25;;;;;;;50.03;22.90;;;;;;;-0.49;95.98;94642.44;5067390;28;20494;-70
2021/03/24 00:57:52;;;;;;;62.55;20.83;;;;;;;-0.63;96.99;94637.06;5064933;28;20047;-70
2021/03/24 01:00:28;;;;;;;45.55;21.30;;;;;;;-0.65;97.22;94631.34;5066343;28;20078;-70
2021/03/24 01:02:57;;;;;;;45.28;21.02;;;;;;;-0.54;97.54;94642.97;5066124;28;20043;-70
2021/03/24 01:05:27;;;;;;;43.42;20.00;;;;;;;-0.57;98.07;94635.63;5066748;28;20041;-70
2021/03/24 01:07:56;;;;;;;32.40;19.52;;;;;;;-0.50;98.45;94630.63;5066187;28;20045;-70
2021/03/24 01:10:26;;;;;;;33.25;18.27;;;;;;;-0.67;98.69;94615.34;5066472;28;20067;-70
2021/03/24 01:12:53;;;;;;;39.70;18.75;;;;;;;-0.53;98.89;94625.84;5066185;28;20063;-70
2021/03/24 01:15:22;;;;;;;35.42;17.08;;;;;;;-0.61;99.44;94613.91;5066107;28;20430;-70
2021/03/24 01:17:49;;;;;;;39.08;16.77;;;;;;;-0.64;99.84;94615.00;5066350;28;20044;-70
2021/03/24 01:20:16;;;;;;;24.23;15.85;;;;;;;-0.62;100.00;94623.31;5066324;28;20436;-70
2021/03/24 01:22:53;;;;;;;29.15;16.58;;;;;;;-0.70;100.00;94615.69;5065233;28;20072;-70
2021/03/24 01:25:25;;;;;;;21.83;14.05;;;;;;;-0.69;100.00;94601.91;5066457;28;20045;-70
2021/03/24 01:27:53;;;;;;;23.65;13.73;;;;;;;-0.65;100.00;94603.19;5066492;28;20045;-70
2021/03/24 01:30:21;;;;;;;24.00;14.88;;;;;;;-0.66;100.00;94596.47;5065080;28;20040;-70
2021/03/24 01:32:47;;;;;;;28.70;15.25;;;;;;;-0.71;100.00;94596.19;5065852;28;20049;-70
2021/03/24 01:35:16;;;;;;;27.50;14.55;;;;;;;-0.74;100.00;94588.81;5064786;28;20098;-70
2021/03/24 01:37:49;;;;;;;25.38;15.77;;;;;;;-0.77;100.00;94589.19;5062693;28;20040;-70
2021/03/24 01:40:28;;;;;;;22.00;14.00;;;;;;;-0.80;100.00;94589.50;5067461;28;20049;-70
2021/03/24 01:42:57;;;;;;;26.75;16.50;;;;;;;-0.81;100.00;94590.47;5066119;28;20111;-70
2021/03/24 01:45:23;;;;;;;28.05;16.45;;;;;;;-0.76;100.00;94580.53;5065011;28;20040;-70
2021/03/24 01:47:56;;;;;;;27.90;13.93;;;;;;;-0.73;100.00;94587.09;5066273;28;20052;-71
2021/03/24 01:50:28;;;;;;;24.13;15.15;;;;;;;-0.73;100.00;94579.41;5069580;28;20521;-71
2021/03/24 01:53:04;;;;;;;26.60;16.23;;;;;;;-0.77;100.00;94578.94;5067133;28;20060;-70
2021/03/24 01:55:31;;;;;;;23.95;15.05;;;;;;;-0.77;100.00;94573.84;5069332;28;20123;-70
2021/03/24 01:57:58;;;;;;;28.55;15.88;;;;;;;-0.86;100.00;94564.63;5067401;28;20056;-71
2021/03/24 02:00:36;;;;;;;18.23;11.88;;;;;;;-0.85;100.00;94561.06;5069460;28;20047;-71
2021/03/24 02:03:04;;;;;;;26.42;15.60;;;;;;;-0.77;100.00;94563.59;5068974;28;20056;-71
2021/03/24 02:05:31;;;;;;;27.77;16.50;;;;;;;-0.75;100.00;94571.91;5070878;28;20123;-71
2021/03/24 02:08:13;;;;;;;27.73;16.13;;;;;;;-0.73;100.00;94564.84;5073808;28;20115;-71
2021/03/24 02:10:53;;;;;;;30.95;17.45;;;;;;;-0.85;100.00;94561.88;5069150;28;20040;-71
2021/03/24 02:13:29;;;;;;;31.98;18.23;;;;;;;-0.82;100.00;94570.97;5074704;28;20117;-71
2021/03/24 02:16:04;;;;;;;31.50;19.88;;;;;;;-0.85;100.00;94555.97;5070886;28;20551;-71
2021/03/24 02:18:34;;;;;;;30.83;18.50;;;;;;;-0.84;100.00;94567.78;5073636;28;20036;-71
2021/03/24 02:21:10;;;;;;;37.88;20.95;;;;;;;-0.85;100.00;94566.19;5070819;28;20047;-70
2021/03/24 02:23:39;;;;;;;27.90;18.35;;;;;;;-0.85;100.00;94572.09;5072058;28;20071;-71
2021/03/24 02:26:24;;;;;;;36.25;20.67;;;;;;;-0.88;100.00;94572.44;5070477;28;20123;-71
2021/03/24 02:28:56;;;;;;;33.85;19.77;;;;;;;-0.85;100.00;94556.75;5070203;28;20044;-71
2021/03/24 02:31:28;;;;;;;32.63;19.45;;;;;;;-0.93;100.00;94544.03;5072365;28;20032;-71
2021/03/24 02:33:58;;;;;;;36.13;20.42;;;;;;;-0.86;100.00;94559.50;5071832;28;20049;-71
2021/03/24 02:36:26;;;;;;;34.03;20.15;;;;;;;-0.89;100.00;94562.38;5072846;28;20480;-71
2021/03/24 02:38:55;;;;;;;31.75;18.63;;;;;;;-0.99;100.00;94548.03;5071053;28;20115;-71
2021/03/24 02:41:22;;;;;;;33.60;19.55;;;;;;;-1.02;100.00;94550.13;5070536;28;20040;-71
2021/03/24 02:43:50;;;;;;;32.58;18.52;;;;;;;-1.07;100.00;94553.16;5071347;28;20164;-71
2021/03/24 02:46:16;;;;;;;29.05;16.88;;;;;;;-1.03;100.00;94559.53;5068229;28;20416;-71
2021/03/24 02:48:44;;;;;;;32.03;19.92;;;;;;;-1.18;100.00;94545.88;5070849;28;20040;-71
2021/03/24 02:51:15;;;;;;;33.42;20.42;;;;;;;-1.08;100.00;94559.25;5069708;28;20025;-71
2021/03/24 02:54:02;;;;;;;32.38;21.80;;;;;;;-1.07;100.00;94548.06;5071268;28;20040;-71
2021/03/24 02:56:28;;;;;;;33.30;19.02;;;;;;;-1.04;100.00;94557.97;5069205;28;20047;-71
2021/03/24 02:58:55;;;;;;;37.72;21.70;;;;;;;-0.97;100.00;94548.66;5068092;28;20124;-71
2021/03/24 03:01:26;;;;;;;40.95;23.70;;;;;;;-0.94;100.00;94551.84;5074389;28;20068;-71
2021/03/24 03:03:59;;;;;;;39.30;21.10;;;;;;;-1.01;100.00;94532.06;5070060;28;20048;-71
2021/03/24 03:06:30;;;;;;;39.75;22.98;;;;;;;-0.90;100.00;94542.88;5070016;28;20040;-72
2021/03/24 03:09:00;;;;;;;35.85;21.60;;;;;;;-0.96;100.00;94544.34;5068429;28;20129;-71
2021/03/24 03:11:39;;;;;;;33.47;20.30;;;;;;;-1.09;100.00;94518.53;5071399;28;20040;-71
2021/03/24 03:14:12;;;;;;;41.00;23.40;;;;;;;-0.94;100.00;94536.50;5071554;28;20055;-71
2021/03/24 03:16:42;;;;;;;40.57;24.03;;;;;;;-0.92;100.00;94539.69;5069146;28;20119;-71
2021/03/24 03:19:30;;;;;;;42.00;23.52;;;;;;;-0.92;100.00;94529.47;5075026;28;20051;-72
2021/03/24 03:22:30;;;;;;;49.28;24.40;;;;;;;-0.94;100.00;94544.19;5070454;28;20417;-71
2021/03/24 03:25:11;;;;;;;40.78;23.00;;;;;;;-0.98;100.00;94541.94;5066522;28;20056;-72
2021/03/24 03:27:38;;;;;;;43.90;27.05;;;;;;;-1.05;100.00;94524.91;5072966;28;20090;-71
2021/03/24 03:30:11;;;;;;;42.38;23.77;;;;;;;-1.15;100.00;94514.88;5069783;28;20044;-71
2021/03/24 03:32:39;;;;;;;43.42;23.85;;;;;;;-0.94;100.00;94536.50;5073073;28;20064;-71
2021/03/24 03:35:16;;;;;;;42.28;25.30;;;;;;;-1.04;100.00;94527.28;5080346;28;20037;-71
2021/03/24 03:37:43;;;;;;;;;;;;;;;-1.02;100.00;94533.03;5079167;28;20078;-71
2021/03/24 03:40:13;;;;;;;31.50;18.52;;;;;;;-1.13;100.00;94522.34;5076683;28;20031;-71
2021/03/24 03:42:40;;;;;;;37.63;21.45;;;;;;;-1.07;100.00;94535.28;5073178;28;20044;-71
2021/03/24 03:45:09;;;;;;;43.67;23.98;;;;;;;-1.03;100.00;94539.09;5072422;28;20920;-71
2021/03/24 03:47:39;;;;;;;43.80;23.35;;;;;;;-1.04;100.00;94537.50;5070866;28;20032;-71
2021/03/24 03:50:08;;;;;;;43.63;25.17;;;;;;;-1.10;100.00;94517.72;5069514;28;20453;-71
2021/03/24 03:53:05;;;;;;;39.05;23.77;;;;;;;-0.99;100.00;94542.94;5069333;28;20043;-71
2021/03/24 03:55:54;;;;;;;38.20;23.13;;;;;;;-1.01;100.00;94537.19;5071186;28;20098;-72
2021/03/24 03:58:49;;;;;;;40.95;21.52;;;;;;;-1.03;100.00;94544.19;5069594;28;20059;-71
2021/03/24 04:01:20;;;;;;;39.10;21.85;;;;;;;-1.08;100.00;94538.81;5069222;28;20067;-71
2021/03/24 04:04:03;;;;;;;46.72;23.33;;;;;;;-1.07;100.00;94537.84;5067531;28;20050;-71
2021/03/24 04:06:37;;;;;;;42.65;24.25;;;;;;;-1.06;100.00;94544.56;5073452;28;20037;-72
2021/03/24 04:09:08;;;;;;;41.08;23.42;;;;;;;-1.10;100.00;94530.50;5072049;28;20048;-72
2021/03/24 04:11:47;;;;;;;43.03;23.85;;;;;;;-1.06;100.00;94534.34;5069425;28;20058;-72
2021/03/24 04:14:20;;;;;;;54.10;25.10;;;;;;;-1.11;100.00;94541.69;5069653;28;20040;-72
2021/03/24 04:16:47;;;;;;;43.90;26.10;;;;;;;-1.09;100.00;94544.88;5073086;28;20574;-71
2021/03/24 04:19:17;;;;;;;42.70;25.10;;;;;;;-1.16;100.00;94549.06;5068705;28;20063;-72
2021/03/24 04:21:48;;;;;;;45.80;22.08;;;;;;;-1.13;100.00;94548.72;5072269;28;20068;-72
2021/03/24 04:24:24;;;;;;;41.28;20.15;;;;;;;-1.09;100.00;94555.09;5069186;28;20519;-71
2021/03/24 04:26:57;;;;;;;46.72;26.38;;;;;;;-1.10;100.00;94545.81;5069506;28;20098;-72
2021/03/24 04:29:33;;;;;;;47.17;27.13;;;;;;;-1.14;100.00;94546.34;5072454;28;20044;-72
2021/03/24 04:32:01;;;;;;;35.05;21.35;;;;;;;-1.23;100.00;94540.47;5069801;28;20524;-71
2021/03/24 04:34:29;;;;;;;48.63;27.50;;;;;;;-1.14;100.00;94552.25;5073058;28;20404;-71
2021/03/24 04:37:04;;;;;;;56.65;31.08;;;;;;;-1.15;100.00;94558.34;5073358;28;20036;-71
2021/03/24 04:39:58;;;;;;;47.05;25.20;;;;;;;-1.26;100.00;94543.34;5071966;28;20042;-72
2021/03/24 04:42:31;;;;;;;51.83;29.58;;;;;;;-1.14;100.00;94562.47;5052588;28;20056;-72
2021/03/24 04:45:08;;;;;;;42.72;25.95;;;;;;;-1.17;100.00;94562.78;5074013;28;20123;-73
2021/03/24 04:47:38;;;;;;;46.55;27.50;;;;;;;-1.19;100.00;94559.59;5072076;28;20153;-71
2021/03/24 04:50:08;;;;;;;54.20;29.88;;;;;;;-1.11;100.00;94569.81;5075369;28;20063;-72
2021/03/24 04:52:35;;;;;;;57.53;31.95;;;;;;;-1.10;100.00;94573.94;5069704;28;20055;-72
2021/03/24 04:55:08;;;;;;;54.42;31.60;;;;;;;-1.08;100.00;94566.94;5069861;28;20040;-73
2021/03/24 04:57:35;;;;;;;46.42;26.08;;;;;;;-1.21;100.00;94556.41;5066184;28;20063;-72
2021/03/24 05:00:07;;;;;;;47.03;27.77;;;;;;;-1.01;100.00;94588.31;5065844;28;20051;-73
2021/03/24 05:02:37;;;;;;;50.35;25.27;;;;;;;-1.07;100.00;94563.41;5068952;28;20051;-72
2021/03/24 05:05:27;;;;;;;44.40;25.17;;;;;;;-0.94;100.00;94583.31;5069237;28;20036;-72
2021/03/24 05:08:02;;;;;;;41.90;21.42;;;;;;;-0.97;100.00;94574.22;5069023;28;20123;-72
2021/03/24 05:10:31;;;;;;;34.92;21.40;;;;;;;-0.89;100.00;94580.28;5066006;28;20047;-72
2021/03/24 05:13:35;;;;;;;34.33;20.55;;;;;;;-0.90;100.00;94581.22;5067609;28;20059;-72
2021/03/24 05:16:07;;;;;;;42.30;22.98;;;;;;;-0.92;100.00;94590.81;5067479;28;20048;-73
2021/03/24 05:18:34;;;;;;;49.13;20.88;;;;;;;-1.01;100.00;94583.22;5069480;28;20486;-72
2021/03/24 05:21:25;;;;;;;44.22;24.77;;;;;;;-1.01;100.00;94592.63;5071621;28;20032;-72
2021/03/24 05:23:57;;;;;;;53.70;24.65;;;;;;;-0.91;100.00;94610.34;5069943;28;20048;-72
2021/03/24 05:26:31;;;;;;;38.63;22.48;;;;;;;-0.90;100.00;94609.34;5068698;28;20166;-73
2021/03/24 05:29:04;;;;;;;38.38;20.40;;;;;;;-0.85;100.00;94617.31;5070845;28;20510;-72
2021/03/24 05:31:38;;;;;;;34.72;19.48;;;;;;;-0.79;100.00;94621.81;5074133;28;20056;-73
2021/03/24 05:34:17;;;;;;;;;;;;;;;-0.68;100.00;94631.66;5072176;28;20429;-73
2021/03/24 05:36:47;;;;;;;33.17;20.50;;;;;;;-0.71;100.00;94633.75;5070278;28;19955;-73
2021/03/24 05:39:28;;;;;;;35.13;20.08;;;;;;;-0.72;100.00;94643.19;5074643;28;20041;-73
2021/03/24 05:42:20;;;;;;;29.98;19.17;;;;;;;-0.69;100.00;94655.63;5074116;28;20032;-73
2021/03/24 05:45:06;;;;;;;36.70;22.10;;;;;;;-0.64;100.00;94655.94;5075928;28;20041;-74
2021/03/24 05:47:48;;;;;;;30.95;18.38;;;;;;;-0.66;100.00;94654.53;5072025;28;20036;-74
2021/03/24 05:50:26;;;;;;;29.83;18.40;;;;;;;-0.61;100.00;94660.72;5073150;28;20052;-74
2021/03/24 05:52:52;;;;;;;32.63;19.73;;;;;;;-0.51;100.00;94669.97;5073103;28;20120;-74
2021/03/24 05:55:32;;;;;;;30.25;15.43;;;;;;;-0.49;100.00;94660.34;5072103;28;20429;-74
2021/03/24 05:58:03;;;;;;;17.70;8.55;;;;;;;-0.27;100.00;94686.97;5075124;28;20553;-74
2021/03/24 06:00:52;;;;;;;5.85;4.10;;;;;;;-0.20;100.00;94693.00;5070006;28;20477;-74
2021/03/24 06:03:37;;;;;;;20.17;10.52;;;;;;;-0.13;95.90;94698.25;5070228;28;20501;-74
2021/03/24 06:06:26;;;;;;;17.73;7.80;;;;;;;-0.15;90.81;94711.22;5074558;28;20044;-74
2021/03/24 06:09:10;;;;;;;5.22;2.38;;;;;;;-0.24;90.33;94697.66;5074143;28;20036;-74
2021/03/24 06:12:03;;;;;;;4.45;2.10;;;;;;;-0.27;88.40;94721.06;5074393;28;20040;-74
2021/03/24 06:14:48;;;;;;;1.00;0.60;;;;;;;-0.35;86.70;94731.31;5070550;28;20068;-74
2021/03/24 06:17:23;;;;;;;6.80;2.10;;;;;;;-0.36;86.45;94739.97;5069143;28;20045;-73
2021/03/24 06:20:02;;;;;;;6.00;2.35;;;;;;;-0.27;86.24;94741.53;5073343;28;20064;-73
2021/03/24 06:22:43;;;;;;;2.72;1.35;;;;;;;-0.29;85.64;94751.13;5070475;28;20036;-72
2021/03/24 06:25:34;;;;;;;50.92;23.25;;;;;;;-0.24;86.33;94764.22;5068314;28;20135;-73
2021/03/24 06:28:12;;;;;;;82.80;57.50;;;;;;;-0.10;85.82;94770.41;5068738;28;20048;-73
2021/03/24 06:31:06;;;;;;;18.23;7.75;;;;;;;-0.12;83.27;94766.44;5068293;28;20417;-72
2021/03/24 06:33:52;;;;;;;7.13;4.82;;;;;;;-0.33;83.22;94767.78;5068049;28;20044;-72
2021/03/24 06:36:50;;;;;;;14.88;7.97;;;;;;;-0.12;83.70;94776.69;5067839;28;20040;-72
2021/03/24 06:39:51;;;;;;;2.58;1.77;;;;;;;-0.25;82.65;94783.13;5067407;28;20036;-72
2021/03/24 06:42:53;;;;;;;3.47;2.17;;;;;;;-0.42;81.96;94802.03;5068007;28;20032;-72
2021/03/24 06:45:27;;;;;;;8.60;2.63;;;;;;;-0.77;81.97;94804.00;5031393;28;20192;-72
2021/03/24 06:47:58;;;;;;;4.82;1.30;;;;;;;-1.02;81.70;94801.44;5067885;28;20056;-72
2021/03/24 06:51:00;;;;;;;4.07;2.75;;;;;;;-1.06;83.83;94810.41;5069064;28;20463;-72
2021/03/24 06:54:05;;;;;;;5.40;1.80;;;;;;;-1.20;82.88;94823.81;5052963;28;20080;-72
2021/03/24 06:56:34;;;;;;;4.05;2.97;;;;;;;-1.14;82.65;94823.16;5068610;28;20425;-73
2021/03/24 06:59:18;;;;;;;10.98;7.38;;;;;;;-1.14;83.41;94828.28;5067873;28;20497;-73
2021/03/24 07:01:54;;;;;;;4.75;3.70;;;;;;;-1.21;82.87;94822.19;5068784;28;20044;-73
2021/03/24 07:04:49;;;;;;;5.63;3.90;;;;;;;-1.46;85.30;94824.75;5069983;28;20098;-74
2021/03/24 07:07:16;;;;;;;3.95;2.50;;;;;;;-1.73;85.32;94834.25;5069672;28;20044;-73
2021/03/24 07:10:10;;;;;;;5.78;2.58;;;;;;;-1.58;85.25;94831.88;5071741;28;20048;-74
2021/03/24 07:13:07;;;;;;;94.27;36.07;;;;;;;-1.34;83.84;94838.00;5067297;28;20036;-74
2021/03/24 07:16:19;;;;;;;21.20;8.50;;;;;;;-1.17;83.11;94824.28;5067859;28;20079;-73
2021/03/24 07:18:56;;;;;;;26.20;13.60;;;;;;;-1.00;82.20;94829.41;5060294;28;20048;-73
2021/03/24 07:21:32;;;;;;;42.85;19.60;;;;;;;-0.81;80.84;94828.28;5068488;28;20047;-72
2021/03/24 07:24:32;;;;;;;6.93;5.13;;;;;;;-1.00;79.78;94843.00;5068859;28;20115;-73
2021/03/24 07:27:21;;;;;;;15.77;11.85;;;;;;;-0.86;80.16;94851.00;5055431;28;20483;-72
2021/03/24 07:30:20;;;;;;;10.65;6.93;;;;;;;-0.74;81.15;94865.03;5071059;28;20051;-72
2021/03/24 07:32:58;;;;;;;4.70;3.85;;;;;;;-0.56;79.45;94874.31;5068624;28;20418;-73
2021/03/24 07:35:34;;;;;;;11.88;7.75;;;;;;;-0.49;79.32;94873.50;5067983;28;20051;-73
2021/03/24 07:38:39;;;;;;;7.18;5.40;;;;;;;-0.48;81.91;94874.34;5067204;28;21182;-74
2021/03/24 07:41:42;;;;;;;16.17;14.57;;;;;;;-0.37;77.16;94891.91;5068313;28;20056;-73
2021/03/24 07:44:37;;;;;;;5.63;4.53;;;;;;;-0.09;75.60;94889.78;5069064;28;20040;-73
2021/03/24 07:47:12;;;;;;;18.83;11.98;;;;;;;0.30;75.08;94893.38;5067629;28;20059;-73
2021/03/24 07:50:17;;;;;;;7.40;4.68;;;;;;;0.82;73.04;94897.94;5067594;28;20452;-73
2021/03/24 07:53:01;;;;;;;13.80;5.55;;;;;;;1.21;72.34;94907.34;5065242;28;20047;-73
2021/03/24 07:55:58;;;;;;;3.15;2.45;;;;;;;0.99;71.09;94918.34;5067431;28;20040;-73
2021/03/24 07:58:51;;;;;;;4.40;3.00;;;;;;;0.75;69.75;94912.41;5065258;28;20048;-73
2021/03/24 08:01:23;;;;;;;8.32;4.78;;;;;;;0.51;72.04;94926.13;5061584;28;20043;-73
2021/03/24 08:04:27;;;;;;;6.50;3.22;;;;;;;0.49;72.25;94933.19;5068265;28;20048;-73
2021/03/24 08:07:44;;;;;;;13.15;6.32;;;;;;;0.57;72.62;94936.50;5064581;28;20072;-73
2021/03/24 08:10:23;;;;;;;5.70;3.80;;;;;;;0.25;72.07;94951.97;5042143;28;20060;-73
2021/03/24 08:13:01;;;;;;;8.02;4.80;;;;;;;0.17;73.68;94951.03;5062660;28;20044;-72
2021/03/24 08:15:53;;;;;;;3.22;2.85;;;;;;;0.27;72.85;94956.00;5063866;28;20055;-72
2021/03/24 08:18:34;;;;;;;8.93;2.97;;;;;;;0.29;73.11;94966.03;5067467;28;20124;-72
2021/03/24 08:21:16;;;;;;;17.98;9.55;;;;;;;0.21;73.65;94956.63;5064915;28;20050;-72
2021/03/24 08:24:17;;;;;;;10.93;6.45;;;;;;;0.44;73.31;94969.53;5066066;28;20425;-72
2021/03/24 08:27:00;;;;;;;8.02;5.72;;;;;;;0.55;73.00;94968.41;5067097;28;20049;-72
2021/03/24 08:29:47;;;;;;;;;;;;;;;0.73;73.54;94976.66;5065540;28;20044;-71
2021/03/24 08:32:49;;;;;;;14.25;6.97;;;;;;;0.90;72.20;94984.28;5062563;28;19924;-72
2021/03/24 08:35:50;;;;;;;5.63;3.55;;;;;;;1.02;72.66;94987.28;5063681;28;20080;-72
2021/03/24 08:38:35;;;;;;;7.00;4.43;;;;;;;1.05;72.04;94984.41;5062549;28;20489;-72
2021/03/24 08:41:20;;;;;;;;;;;;;;;1.11;71.14;94993.97;5067271;28;20045;-72
2021/03/24 08:44:28;;;;;;;18.33;10.73;;;;;;;1.14;72.46;94983.38;5066211;28;19932;-72
2021/03/24 08:47:16;;;;;;;15.70;7.60;;;;;;;0.95;72.42;94964.88;5039934;28;20497;-72
2021/03/24 08:49:48;;;;;;;14.90;7.93;;;;;;;0.81;71.32;94990.41;5039547;28;20573;-71
2021/03/24 08:52:44;;;;;;;15.23;8.88;;;;;;;0.44;77.10;94997.72;5039654;28;20045;-70
2021/03/24 08:55:10;;;;;;;6.07;4.60;;;;;;;0.13;79.93;94998.44;5062198;28;20510;-70
2021/03/24 08:58:02;;;;;;;6.05;4.45;;;;;;;-0.04;81.42;94984.03;5063174;28;20052;-70
2021/03/24 09:00:31;;;;;;;13.90;7.20;;;;;;;0.05;83.20;95000.97;5065126;28;20477;-70
2021/03/24 09:03:12;;;;;;;33.42;11.80;;;;;;;0.29;80.54;94999.34;5064820;28;20045;-70
2021/03/24 09:05:55;;;;;;;6.38;4.80;;;;;;;0.28;78.97;94990.09;5065507;28;20048;-71
2021/03/24 09:08:28;;;;;;;15.82;8.43;;;;;;;0.56;76.74;94993.88;5065159;28;20048;-70
2021/03/24 09:11:16;;;;;;;9.57;5.47;;;;;;;0.89;70.93;94990.38;5057574;28;20040;-70
2021/03/24 09:14:15;;;;;;;6.57;3.85;;;;;;;1.68;67.95;94980.78;5060629;28;20036;-71
2021/03/24 09:16:50;;;;;;;12.85;7.55;;;;;;;2.31;67.51;94996.00;5055305;28;20490;-70
2021/03/24 09:19:37;;;;;;;7.72;3.20;;;;;;;2.41;63.59;94996.56;5058471;28;20118;-70
2021/03/24 09:22:23;;;;;;;9.38;6.07;;;;;;;2.51;65.80;95005.78;5058821;28;20056;-70
2021/03/24 09:24:49;;;;;;;11.27;7.78;;;;;;;2.49;63.75;95009.31;5064417;28;20108;-71
2021/03/24 09:27:40;;;;;;;13.10;7.20;;;;;;;2.79;64.26;95008.53;5055683;28;20929;-71
2021/03/24 09:30:47;;;;;;;5.82;4.53;;;;;;;2.86;62.40;95015.38;5063118;28;20052;-71
2021/03/24 09:33:35;;;;;;;6.13;3.55;;;;;;;3.34;61.50;95014.94;5058816;28;20055;-71
2021/03/24 09:36:28;;;;;;;1.77;1.30;;;;;;;3.72;65.59;95024.25;5064139;28;20490;-72
2021/03/24 09:38:59;;;;;;;8.82;4.07;;;;;;;4.23;60.76;95016.38;5062843;28;20076;-72
2021/03/24 09:41:41;;;;;;;2.15;1.60;;;;;;;3.80;61.55;95021.59;5064998;28;20072;-71
2021/03/24 09:44:17;;;;;;;5.28;2.33;;;;;;;3.94;59.78;95018.16;5064626;28;20041;-71
2021/03/24 09:46:50;;;;;;;6.32;3.28;;;;;;;3.99;61.13;95020.94;5064798;28;20101;-71
2021/03/24 09:49:22;;;;;;;2.55;1.45;;;;;;;4.36;59.97;95019.06;5058120;28;20052;-72
2021/03/24 09:52:30;;;;;;;15.45;7.75;;;;;;;4.45;55.08;95019.72;5077651;28;20573;-72
2021/03/24 09:55:00;;;;;;;18.08;9.95;;;;;;;4.16;60.32;95025.84;5065785;28;20040;-72
2021/03/24 09:57:39;;;;;;;6.75;2.90;;;;;;;3.97;56.54;95028.06;5063722;28;20055;-72
2021/03/24 10:00:11;;;;;;;14.00;5.65;;;;;;;3.57;61.43;95040.56;5062003;28;20056;-72
2021/03/24 10:03:03;;;;;;;2.35;1.35;;;;;;;3.50;55.81;95031.97;5063771;28;20406;-72
2021/03/24 10:05:40;;;;;;;11.82;5.38;;;;;;;3.58;56.88;95023.31;5062128;28;20040;-72
2021/03/24 10:08:14;;;;;;;8.57;2.47;;;;;;;3.29;60.23;95039.66;5062903;28;22888;-72
2021/03/24 10:10:44;;;;;;;34.85;14.57;;;;;;;3.60;57.75;95037.63;5063661;28;20036;-72
2021/03/24 10:13:25;;;;;;;10.55;7.55;;;;;;;3.85;55.20;95049.34;5061587;28;20098;-73
2021/03/24 10:16:21;;;;;;;10.55;5.38;;;;;;;3.91;57.97;95046.84;5063329;28;20047;-73
2021/03/24 10:19:06;;;;;;;13.57;8.52;;;;;;;3.68;55.85;95039.28;5064693;28;20052;-72
2021/03/24 10:21:32;;;;;;;20.05;11.05;;;;;;;3.85;59.23;95039.84;5067692;28;20119;-72
2021/03/24 10:24:06;;;;;;;6.18;3.03;;;;;;;3.94;58.89;95043.09;5066200;28;20045;-71
2021/03/24 10:26:50;;;;;;;2.53;1.38;;;;;;;4.08;57.28;95044.03;5064705;28;20037;-71
2021/03/24 10:29:23;;;;;;;6.65;1.80;;;;;;;3.61;56.59;95054.66;5067615;28;20047;-71
2021/03/24 10:32:19;;;;;;;3.50;1.85;;;;;;;3.59;58.92;95051.47;5067265;28;20115;-70
2021/03/24 10:34:48;;;;;;;10.35;6.22;;;;;;;3.72;58.43;95060.31;5067160;28;20124;-70
2021/03/24 10:37:37;;;;;;;7.50;4.53;;;;;;;3.61;58.76;95039.22;5062882;28;20056;-70
2021/03/24 10:40:30;;;;;;;2.95;1.80;;;;;;;3.63;58.11;95052.69;5063991;28;20044;-70
2021/03/24 10:43:33;;;;;;;4.28;1.90;;;;;;;4.01;57.49;95055.06;5064636;28;20052;-70
2021/03/24 10:46:18;;;;;;;2.67;1.80;;;;;;;3.78;59.47;95057.00;5059231;28;20127;-71
2021/03/24 10:48:54;;;;;;;2.22;1.50;;;;;;;3.74;59.84;95053.22;5060199;28;20060;-70
2021/03/24 10:51:33;;;;;;;9.35;4.85;;;;;;;3.56;59.62;95062.13;5052295;28;20033;-71
2021/03/24 10:54:23;;;;;;;11.63;6.55;;;;;;;3.80;57.20;95042.19;5064785;28;20040;-71
2021/03/24 10:57:15;;;;;;;2.95;1.52;;;;;;;4.19;56.57;95053.84;5063300;28;20045;-71
2021/03/24 10:59:48;;;;;;;3.67;1.58;;;;;;;4.73;56.07;95037.75;5063505;28;20051;-70
2021/03/24 11:02:41;;;;;;;2.72;1.73;;;;;;;5.15;52.46;95046.34;5064868;28;20044;-71
2021/03/24 11:05:11;;;;;;;8.50;3.92;;;;;;;5.15;51.42;95043.78;5061136;28;20074;-70
2021/03/24 11:07:49;;;;;;;7.22;4.82;;;;;;;5.54;53.28;95029.41;5063574;28;20044;-70
2021/03/24 11:10:38;;;;;;;4.88;2.60;;;;;;;5.44;51.60;95039.31;5062442;28;20703;-70
2021/03/24 11:13:15;;;;;;;10.02;5.30;;;;;;;5.85;48.06;95035.84;5063573;28;20045;-70
2021/03/24 11:15:50;;;;;;;7.18;4.03;;;;;;;5.79;49.48;95026.28;5063658;28;20051;-70
2021/03/24 11:18:23;;;;;;;5.38;2.92;;;;;;;5.33;48.56;95032.09;5061767;28;20032;-69
2021/03/24 11:21:02;;;;;;;12.27;5.43;;;;;;;5.69;46.73;95025.84;5059728;28;20064;-70
2021/03/24 11:23:44;;;;;;;4.20;1.63;;;;;;;6.15;42.33;95029.56;5061038;28;20470;-70
2021/03/24 11:26:16;;;;;;;8.23;4.85;;;;;;;6.88;43.31;95030.31;5066697;28;20486;-70
2021/03/24 11:28:55;;;;;;;3.95;1.52;;;;;;;7.22;41.80;95010.28;5065322;28;20051;-70
2021/03/24 11:31:31;;;;;;;2.25;1.15;;;;;;;6.80;44.71;95025.31;5061388;28;20038;-70
2021/03/24 11:34:10;;;;;;;3.22;1.50;;;;;;;7.47;43.31;95012.97;5062204;28;20045;-69
2021/03/24 11:36:45;;;;;;;7.78;4.35;;;;;;;8.02;40.43;95020.22;5066624;28;20063;-70
2021/03/24 11:39:40;;;;;;;3.90;1.95;;;;;;;8.76;38.44;95014.50;5061944;28;20049;-70
2021/03/24 11:42:14;;;;;;;2.20;1.23;;;;;;;7.61;44.04;95012.91;5064220;28;20051;-70
2021/03/24 11:44:43;;;;;;;2.33;1.60;;;;;;;7.56;39.65;95016.13;5065307;28;20420;-70
2021/03/24 11:47:17;;;;;;;2.95;1.90;;;;;;;7.12;42.03;95009.91;5067101;28;20052;-70
2021/03/24 11:49:55;;;;;;;2.63;1.25;;;;;;;7.59;40.95;95009.72;5063659;28;20127;-69
2021/03/24 11:52:43;;;;;;;3.92;1.80;;;;;;;7.77;41.66;95012.41;5059403;28;20055;-69
2021/03/24 11:55:40;;;;;;;3.20;1.58;;;;;;;7.72;41.70;95009.63;5055265;28;20053;-69
2021/03/24 11:58:16;;;;;;;4.28;2.03;;;;;;;8.02;40.21;95009.84;5065420;28;20041;-69
2021/03/24 12:01:18;;;;;;;1.40;1.10;;;;;;;7.85;39.95;95009.56;5062644;28;20044;-69
2021/03/24 12:04:25;;;;;;;7.32;4.20;;;;;;;8.84;35.82;94998.63;5064674;28;20127;-69
2021/03/24 12:07:22;;;;;;;1.60;1.15;;;;;;;9.51;31.59;94995.28;5065666;28;20046;-69
2021/03/24 12:10:01;;;;;;;9.60;5.90;;;;;;;9.80;35.48;94998.09;5064712;28;20059;-69
2021/03/24 12:12:27;;;;;;;3.22;1.88;;;;;;;9.84;35.59;95004.44;5065439;28;20464;-69
2021/03/24 12:15:18;;;;;;;3.55;1.50;;;;;;;9.29;36.28;94998.34;5066220;28;20134;-69
2021/03/24 12:17:45;;;;;;;4.35;3.00;;;;;;;9.33;34.92;94988.31;5065181;28;20128;-69